createdAt,value
2023-03-19T00:01:50.987Z,8.22
2023-03-19T00:04:17.516Z,8.05
2023-03-19T00:06:44.098Z,7.92
2023-03-19T00:09:10.798Z,8.06
2023-03-19T00:11:37.290Z,7.93
2023-03-19T00:14:03.825Z,8.09
2023-03-19T00:16:30.438Z,8.12
2023-03-19T00:18:57.359Z,8.17
2023-03-19T00:21:25.923Z,8.21
2023-03-19T00:23:52.700Z,8.14
2023-03-19T00:26:19.341Z,7.90
2023-03-19T00:28:46.025Z,7.91
2023-03-19T00:31:14.588Z,7.77
2023-03-19T00:33:41.345Z,7.76
2023-03-19T00:36:08.138Z,7.79
2023-03-19T00:38:35.872Z,7.75
2023-03-19T00:41:03.268Z,7.87
2023-03-19T00:43:29.761Z,7.90
2023-03-19T00:45:56.274Z,8.03
2023-03-19T00:48:23.160Z,8.11
2023-03-19T00:50:49.674Z,8.04
2023-03-19T00:53:16.375Z,8.12
2023-03-19T00:55:42.870Z,8.11
2023-03-19T00:58:10.273Z,7.96
2023-03-19T01:00:37.500Z,7.93
2023-03-19T01:03:03.997Z,8.07
2023-03-19T01:05:30.976Z,7.89
2023-03-19T01:07:57.632Z,7.97
2023-03-19T01:10:24.309Z,8.00
2023-03-19T01:12:50.951Z,7.79
2023-03-19T01:15:17.677Z,7.82
2023-03-19T01:17:44.197Z,7.81
2023-03-19T01:20:14.067Z,7.95
2023-03-19T01:22:41.520Z,7.99
2023-03-19T01:25:08.840Z,8.08
2023-03-19T01:27:35.720Z,8.04
2023-03-19T01:30:02.308Z,8.04
2023-03-19T01:32:28.821Z,8.05
2023-03-19T01:34:55.327Z,7.96
2023-03-19T01:37:21.805Z,8.20
2023-03-19T01:39:48.274Z,8.12
2023-03-19T01:42:14.793Z,8.20
2023-03-19T01:44:42.014Z,8.16
2023-03-19T01:47:16.216Z,8.20
2023-03-19T01:49:42.765Z,8.19
2023-03-19T01:52:09.954Z,8.10
2023-03-19T01:54:36.469Z,7.94
2023-03-19T01:57:05.890Z,7.74
2023-03-19T01:59:40.811Z,7.95
2023-03-19T02:02:22.034Z,7.98
2023-03-19T02:04:49.314Z,8.02
2023-03-19T02:07:16.232Z,7.81
2023-03-19T02:09:42.716Z,7.81
2023-03-19T02:12:09.365Z,7.77
2023-03-19T02:14:35.936Z,7.73
2023-03-19T02:17:02.395Z,7.61
2023-03-19T02:19:48.562Z,7.62
2023-03-19T02:22:16.693Z,7.74
2023-03-19T02:24:58.850Z,7.74
2023-03-19T02:27:25.338Z,7.66
2023-03-19T02:29:51.915Z,7.70
2023-03-19T02:32:18.415Z,7.59
2023-03-19T02:34:45.040Z,7.49
2023-03-19T02:37:33.280Z,7.76
2023-03-19T02:40:08.605Z,7.91
2023-03-19T02:42:35.371Z,7.96
2023-03-19T02:45:01.862Z,7.97
2023-03-19T02:47:28.367Z,8.03
2023-03-19T02:49:55.936Z,8.08
2023-03-19T02:52:22.462Z,8.12
2023-03-19T02:54:48.992Z,8.21
2023-03-19T02:57:15.714Z,8.36
2023-03-19T02:59:42.186Z,8.28
2023-03-19T03:02:10.141Z,8.41
2023-03-19T03:04:39.442Z,8.53
2023-03-19T03:07:06.169Z,8.46
2023-03-19T03:09:32.678Z,8.45
2023-03-19T03:11:59.161Z,8.56
2023-03-19T03:14:25.675Z,8.33
2023-03-19T03:16:52.400Z,8.56
2023-03-19T03:19:19.450Z,8.44
2023-03-19T03:21:45.930Z,8.39
2023-03-19T03:24:12.400Z,8.49
2023-03-19T03:26:39.009Z,8.55
2023-03-19T03:29:06.134Z,8.32
2023-03-19T03:31:32.744Z,8.41
2023-03-19T03:33:59.215Z,8.49
2023-03-19T03:36:25.698Z,8.71
2023-03-19T03:38:52.183Z,9.18
2023-03-19T03:41:18.684Z,9.44
2023-03-19T03:43:45.304Z,9.42
2023-03-19T03:46:11.869Z,9.48
2023-03-19T03:48:38.406Z,9.58
2023-03-19T03:51:04.956Z,9.62
2023-03-19T03:53:31.705Z,9.53
2023-03-19T03:55:58.192Z,9.46
2023-03-19T03:58:24.871Z,9.32
2023-03-19T04:00:51.475Z,9.43
2023-03-19T04:03:18.288Z,9.44
2023-03-19T04:05:44.910Z,9.39
2023-03-19T04:08:12.101Z,9.57
2023-03-19T04:10:42.381Z,9.39
2023-03-19T04:13:09.327Z,9.44
2023-03-19T04:15:35.859Z,9.42
2023-03-19T04:18:02.347Z,9.45
2023-03-19T04:20:29.077Z,9.38
2023-03-19T04:22:55.762Z,9.37
2023-03-19T04:25:22.399Z,9.26
2023-03-19T04:27:48.869Z,9.23
2023-03-19T04:30:15.440Z,9.19
2023-03-19T04:32:41.959Z,9.17
2023-03-19T04:35:09.007Z,9.05
2023-03-19T04:37:35.489Z,9.11
2023-03-19T04:40:01.998Z,9.07
2023-03-19T04:42:28.528Z,9.07
2023-03-19T04:44:55.064Z,8.99
2023-03-19T04:47:21.882Z,8.97
2023-03-19T04:49:48.836Z,9.02
2023-03-19T04:52:15.312Z,9.31
2023-03-19T04:54:41.805Z,9.44
2023-03-19T04:57:08.326Z,9.48
2023-03-19T04:59:34.858Z,9.54
2023-03-19T05:02:01.396Z,9.55
2023-03-19T05:04:27.966Z,9.60
2023-03-19T05:06:54.446Z,9.73
2023-03-19T05:09:20.982Z,9.59
2023-03-19T05:11:47.478Z,9.59
2023-03-19T05:14:13.973Z,9.55
2023-03-19T05:16:40.444Z,9.47
2023-03-19T05:19:06.938Z,9.41
2023-03-19T05:21:33.544Z,9.48
2023-03-19T05:24:00.223Z,9.61
2023-03-19T05:26:26.885Z,9.46
2023-03-19T05:28:53.414Z,9.57
2023-03-19T05:31:19.962Z,9.81
2023-03-19T05:33:46.556Z,9.80
2023-03-19T05:36:13.082Z,9.85
2023-03-19T05:38:39.554Z,9.85
2023-03-19T05:41:06.401Z,9.94
2023-03-19T05:43:33.353Z,9.89
2023-03-19T05:45:59.829Z,9.86
2023-03-19T05:48:26.521Z,9.75
2023-03-19T05:50:53.080Z,9.75
2023-03-19T05:53:19.934Z,9.67
2023-03-19T05:55:46.396Z,9.64
2023-03-19T05:58:12.865Z,9.66
2023-03-19T06:00:39.330Z,9.64
2023-03-19T06:03:06.333Z,9.54
2023-03-19T06:05:32.840Z,9.43
2023-03-19T06:07:59.414Z,9.38
2023-03-19T06:10:25.917Z,9.46
2023-03-19T06:12:52.399Z,9.53
2023-03-19T06:15:18.868Z,9.47
2023-03-19T06:17:45.661Z,9.46
2023-03-19T06:20:12.967Z,9.42
2023-03-19T06:22:39.600Z,9.40
2023-03-19T06:25:06.650Z,9.40
2023-03-19T06:27:33.116Z,9.33
2023-03-19T06:29:59.619Z,9.23
2023-03-19T06:32:26.089Z,9.20
2023-03-19T06:34:52.949Z,9.09
2023-03-19T06:37:19.415Z,9.12
2023-03-19T06:39:45.929Z,9.16
2023-03-19T06:42:13.218Z,9.48
2023-03-19T06:44:39.738Z,9.72
2023-03-19T06:47:06.993Z,9.88
2023-03-19T06:49:33.469Z,9.96
2023-03-19T06:51:59.925Z,10.06
2023-03-19T06:54:26.429Z,10.07
2023-03-19T06:56:52.939Z,10.05
2023-03-19T06:59:19.525Z,10.07
2023-03-19T07:01:46.730Z,10.02
2023-03-19T07:04:13.282Z,10.06
2023-03-19T07:06:39.805Z,10.15
2023-03-19T07:09:06.532Z,10.18
2023-03-19T07:11:35.711Z,10.22
2023-03-19T07:14:02.569Z,10.32
2023-03-19T07:16:29.053Z,10.39
2023-03-19T07:18:56.230Z,10.52
2023-03-19T07:21:22.919Z,10.56
2023-03-19T07:23:50.857Z,10.62
2023-03-19T07:26:17.867Z,10.65
2023-03-19T07:28:44.388Z,10.70
2023-03-19T07:31:10.914Z,10.83
2023-03-19T07:33:37.373Z,10.83
2023-03-19T07:36:04.030Z,10.77
2023-03-19T07:38:30.517Z,10.79
2023-03-19T07:41:02.474Z,10.73
2023-03-19T07:43:29.319Z,10.72
2023-03-19T07:45:55.889Z,10.67
2023-03-19T07:48:22.405Z,10.69
2023-03-19T07:50:51.238Z,10.73
2023-03-19T07:53:17.711Z,10.80
2023-03-19T07:55:44.170Z,10.94
2023-03-19T07:58:11.038Z,11.00
2023-03-19T08:00:37.509Z,11.01
2023-03-19T08:03:04.053Z,11.09
2023-03-19T08:05:30.513Z,11.07
2023-03-19T08:07:57.126Z,11.08
2023-03-19T08:10:23.677Z,11.04
2023-03-19T08:12:50.440Z,10.99
2023-03-19T08:15:16.934Z,11.05
2023-03-19T08:17:43.410Z,11.11
2023-03-19T08:20:11.970Z,11.28
2023-03-19T08:22:38.633Z,11.30
2023-03-19T08:25:06.760Z,11.31
2023-03-19T08:27:35.696Z,11.42
2023-03-19T08:30:07.183Z,11.50
2023-03-19T08:32:33.716Z,11.56
2023-03-19T08:35:00.347Z,11.64
2023-03-19T08:37:26.988Z,11.72
2023-03-19T08:39:54.646Z,11.71
2023-03-19T08:42:25.082Z,11.73
2023-03-19T08:44:54.661Z,11.76
2023-03-19T08:47:33.542Z,11.76
2023-03-19T08:53:07.007Z,11.96
2023-03-19T08:55:33.710Z,12.08
2023-03-19T08:58:00.642Z,12.09
2023-03-19T09:00:31.583Z,11.84
2023-03-19T09:02:58.119Z,11.86
2023-03-19T09:05:24.605Z,11.76
2023-03-19T09:07:51.998Z,11.80
2023-03-19T09:10:18.497Z,11.70
2023-03-19T09:12:46.210Z,11.70
2023-03-19T09:15:14.363Z,11.67
2023-03-19T09:17:40.993Z,11.63
2023-03-19T09:20:08.208Z,11.81
2023-03-19T09:22:34.751Z,11.99
2023-03-19T09:25:01.327Z,12.15
2023-03-19T09:27:28.610Z,12.20
2023-03-19T09:29:55.294Z,12.28
2023-03-19T09:32:21.853Z,12.14
2023-03-19T09:34:48.373Z,12.30
2023-03-19T09:37:14.933Z,12.51
2023-03-19T09:39:41.446Z,12.51
2023-03-19T09:42:26.835Z,12.56
2023-03-19T09:44:53.437Z,12.66
2023-03-19T09:47:31.294Z,12.78
2023-03-19T09:50:04.042Z,12.95
2023-03-19T09:52:51.258Z,13.03
2023-03-19T09:55:23.984Z,13.02
2023-03-19T09:57:51.301Z,13.10
2023-03-19T10:00:31.233Z,13.12
2023-03-19T10:03:31.806Z,13.20
2023-03-19T10:06:19.796Z,13.28
2023-03-19T10:09:04.718Z,13.36
2023-03-19T10:11:34.693Z,13.29
2023-03-19T10:14:28.968Z,13.38
2023-03-19T10:16:55.895Z,13.35
2023-03-19T10:19:24.559Z,13.43
2023-03-19T10:21:57.053Z,13.39
2023-03-19T10:24:31.279Z,13.42
2023-03-19T10:27:01.963Z,13.26
2023-03-19T10:29:28.528Z,13.01
2023-03-19T10:32:09.169Z,13.15
2023-03-19T10:34:37.640Z,13.00
2023-03-19T10:37:13.261Z,12.97
2023-03-19T10:39:40.747Z,12.95
2023-03-19T10:42:27.595Z,13.04
2023-03-19T10:44:59.152Z,13.13
2023-03-19T10:47:26.266Z,13.31
2023-03-19T10:49:52.804Z,13.30
2023-03-19T10:52:28.856Z,13.45
2023-03-19T10:54:56.886Z,13.66
2023-03-19T10:57:28.750Z,13.91
2023-03-19T10:59:55.284Z,13.82
2023-03-19T11:02:30.989Z,14.18
2023-03-19T11:05:29.301Z,14.18
2023-03-19T11:08:05.617Z,14.12
2023-03-19T11:10:33.671Z,14.44
2023-03-19T11:13:07.523Z,14.35
2023-03-19T11:15:38.147Z,14.70
2023-03-19T11:18:15.562Z,15.02
2023-03-19T11:20:42.294Z,15.00
2023-03-19T11:23:16.516Z,15.10
2023-03-19T11:25:53.321Z,14.99
2023-03-19T11:28:26.290Z,15.38
2023-03-19T11:31:12.579Z,15.42
2023-03-19T11:33:59.362Z,15.75
2023-03-19T11:36:38.066Z,15.82
2023-03-19T11:39:28.746Z,15.73
2023-03-19T11:42:29.872Z,15.91
2023-03-19T11:45:17.616Z,16.08
2023-03-19T11:48:02.769Z,15.93
2023-03-19T11:51:14.810Z,15.83
2023-03-19T11:53:52.972Z,15.58
2023-03-19T11:56:23.563Z,15.53
2023-03-19T11:58:53.931Z,15.59
2023-03-19T12:02:02.578Z,15.39
2023-03-19T12:04:47.382Z,15.46
2023-03-19T12:07:22.944Z,15.34
2023-03-19T12:10:14.137Z,15.35
2023-03-19T12:12:55.580Z,14.96
2023-03-19T12:15:48.368Z,15.17
2023-03-19T12:18:29.960Z,15.06
2023-03-19T12:21:11.361Z,15.12
2023-03-19T12:23:59.439Z,15.16
2023-03-19T12:26:47.808Z,15.30
2023-03-19T12:29:22.101Z,15.83
2023-03-19T12:32:10.136Z,15.78
2023-03-19T12:34:53.889Z,16.10
2023-03-19T12:37:42.721Z,15.69
2023-03-19T12:40:37.754Z,15.53
2023-03-19T12:43:14.784Z,16.30
2023-03-19T12:45:43.274Z,16.00
2023-03-19T12:48:16.191Z,15.78
2023-03-19T12:50:44.308Z,15.77
2023-03-19T12:53:33.734Z,15.45
2023-03-19T12:56:02.477Z,15.40
2023-03-19T12:59:14.326Z,15.83
2023-03-19T13:01:46.174Z,15.78
2023-03-19T13:04:26.508Z,15.64
2023-03-19T13:07:01.531Z,15.24
2023-03-19T13:09:32.564Z,15.32
2023-03-19T13:12:20.794Z,15.07
2023-03-19T13:15:07.275Z,15.41
2023-03-19T13:17:58.919Z,15.62
2023-03-19T13:21:03.089Z,15.41
2023-03-19T13:23:32.205Z,15.36
2023-03-19T13:25:58.722Z,15.62
2023-03-19T13:28:29.311Z,16.08
2023-03-19T13:31:18.721Z,16.07
2023-03-19T13:34:07.798Z,15.68
2023-03-19T13:36:40.274Z,15.46
2023-03-19T13:39:13.508Z,15.62
2023-03-19T13:41:47.568Z,15.59
2023-03-19T13:44:33.175Z,15.74
2023-03-19T13:47:25.769Z,15.74
2023-03-19T13:50:12.736Z,15.34
2023-03-19T13:52:39.066Z,16.16
2023-03-19T13:55:28.534Z,16.75
2023-03-19T13:58:11.898Z,17.11
2023-03-19T14:00:41.370Z,17.31
2023-03-19T14:03:24.890Z,16.91
2023-03-19T14:05:53.100Z,16.55
2023-03-19T14:08:23.874Z,16.36
2023-03-19T14:10:52.555Z,16.53
2023-03-19T14:13:28.538Z,16.40
2023-03-19T14:15:55.021Z,17.04
2023-03-19T14:18:22.138Z,16.57
2023-03-19T14:21:26.619Z,15.81
2023-03-19T14:23:55.029Z,16.09
2023-03-19T14:26:25.426Z,16.15
2023-03-19T14:29:08.259Z,16.50
2023-03-19T14:31:43.731Z,15.61
2023-03-19T14:34:27.356Z,16.02
2023-03-19T14:37:16.091Z,15.73
2023-03-19T14:39:43.190Z,15.77
2023-03-19T14:42:24.477Z,15.42
2023-03-19T14:45:14.220Z,15.32
2023-03-19T14:47:55.511Z,15.76
2023-03-19T14:50:41.842Z,15.73
2023-03-19T14:53:18.496Z,16.00
2023-03-19T14:56:32.918Z,15.96
2023-03-19T14:59:07.630Z,16.20
2023-03-19T15:05:00.796Z,16.31
2023-03-19T15:07:40.473Z,16.05
2023-03-19T15:10:08.307Z,15.21
2023-03-19T15:12:43.446Z,14.97
2023-03-19T15:15:47.652Z,14.84
2023-03-19T15:18:14.237Z,14.85
2023-03-19T15:20:44.851Z,14.76
2023-03-19T15:23:25.703Z,14.65
2023-03-19T15:26:03.194Z,14.56
2023-03-19T15:28:31.085Z,14.59
2023-03-19T15:31:09.406Z,14.50
2023-03-19T15:33:46.418Z,14.32
2023-03-19T15:36:23.980Z,14.21
2023-03-19T15:38:59.329Z,14.35
2023-03-19T15:41:26.234Z,14.08
2023-03-19T15:43:52.681Z,14.01
2023-03-19T15:46:23.128Z,13.95
2023-03-19T15:48:52.601Z,13.93
2023-03-19T15:51:19.385Z,14.06
2023-03-19T15:53:45.920Z,14.01
2023-03-19T15:56:13.764Z,14.00
2023-03-19T15:58:42.186Z,14.04
2023-03-19T16:01:09.433Z,13.88
2023-03-19T16:03:44.278Z,13.60
2023-03-19T16:06:17.380Z,13.28
2023-03-19T16:08:54.090Z,13.36
2023-03-19T16:11:29.752Z,13.36
2023-03-19T16:14:09.860Z,13.24
2023-03-19T16:16:38.620Z,13.27
2023-03-19T16:19:05.085Z,13.11
2023-03-19T16:21:38.989Z,13.06
2023-03-19T16:24:08.315Z,13.00
2023-03-19T16:26:41.869Z,13.01
2023-03-19T16:29:35.717Z,12.87
2023-03-19T16:32:22.673Z,12.76
2023-03-19T16:35:06.012Z,12.70
2023-03-19T16:37:38.492Z,12.63
2023-03-19T16:40:13.832Z,12.56
2023-03-19T16:42:50.835Z,12.55
2023-03-19T16:45:17.439Z,12.54
2023-03-19T16:47:44.622Z,12.53
2023-03-19T16:50:11.228Z,12.48
2023-03-19T16:52:38.255Z,12.51
2023-03-19T16:55:05.595Z,12.53
2023-03-19T16:57:32.060Z,12.49
2023-03-19T16:59:58.561Z,12.39
2023-03-19T17:02:25.202Z,12.19
2023-03-19T17:04:51.711Z,12.19
2023-03-19T17:07:18.212Z,12.09
2023-03-19T17:09:44.664Z,12.09
2023-03-19T17:12:14.560Z,12.05
2023-03-19T17:14:41.162Z,11.89
2023-03-19T17:17:20.126Z,11.69
2023-03-19T17:19:46.654Z,11.51
2023-03-19T17:22:14.357Z,11.32
2023-03-19T17:24:41.005Z,11.30
2023-03-19T17:27:08.956Z,11.29
2023-03-19T17:29:35.451Z,11.31
2023-03-19T17:32:02.003Z,11.42
2023-03-19T17:34:31.754Z,11.63
2023-03-19T17:37:02.252Z,11.54
2023-03-19T17:39:32.051Z,11.36
2023-03-19T17:41:58.937Z,11.37
2023-03-19T17:44:25.801Z,11.39
2023-03-19T17:46:53.281Z,11.12
2023-03-19T17:49:28.931Z,11.10
2023-03-19T17:51:55.839Z,10.90
2023-03-19T17:54:22.300Z,10.81
2023-03-19T17:56:48.828Z,10.74
2023-03-19T17:59:15.327Z,10.60
2023-03-19T18:01:43.492Z,10.46
2023-03-19T18:04:13.195Z,10.32
2023-03-19T18:06:42.635Z,10.46
2023-03-19T18:09:20.902Z,10.32
2023-03-19T18:11:47.380Z,10.18
2023-03-19T18:14:13.906Z,10.07
2023-03-19T18:16:40.469Z,10.05
2023-03-19T18:19:19.213Z,10.03
2023-03-19T18:21:45.690Z,10.00
2023-03-19T18:24:12.552Z,9.92
2023-03-19T18:26:39.023Z,9.88
2023-03-19T18:29:05.589Z,9.94
2023-03-19T18:31:32.113Z,10.02
2023-03-19T18:34:00.881Z,10.03
2023-03-19T18:36:28.823Z,10.06
2023-03-19T18:38:55.416Z,10.10
2023-03-19T18:41:22.529Z,10.26
2023-03-19T18:43:48.988Z,10.24
2023-03-19T18:46:23.611Z,10.32
2023-03-19T18:48:50.275Z,10.31
2023-03-19T18:51:16.746Z,10.40
2023-03-19T18:53:43.379Z,10.44
2023-03-19T18:56:18.153Z,10.46
2023-03-19T18:58:44.653Z,10.56
2023-03-19T19:01:14.743Z,10.61
2023-03-19T19:03:41.243Z,10.57
2023-03-19T19:06:08.520Z,10.60
2023-03-19T19:08:34.992Z,10.67
2023-03-19T19:11:03.548Z,10.72
2023-03-19T19:13:32.067Z,10.70
2023-03-19T19:15:58.641Z,10.54
2023-03-19T19:18:26.348Z,10.74
2023-03-19T19:20:53.204Z,10.76
2023-03-19T19:23:20.627Z,10.74
2023-03-19T19:25:48.037Z,10.67
2023-03-19T19:28:15.508Z,10.65
2023-03-19T19:30:42.132Z,10.62
2023-03-19T19:33:28.615Z,10.69
2023-03-19T19:35:55.478Z,10.73
2023-03-19T19:38:21.979Z,10.70
2023-03-19T19:40:49.782Z,10.59
2023-03-19T19:43:18.608Z,10.49
2023-03-19T19:45:45.692Z,10.54
2023-03-19T19:48:20.526Z,10.62
2023-03-19T19:50:47.444Z,10.72
2023-03-19T19:53:14.058Z,10.58
2023-03-19T19:55:40.683Z,10.52
2023-03-19T19:58:08.715Z,10.59
2023-03-19T20:00:35.264Z,10.42
2023-03-19T20:03:01.803Z,10.47
2023-03-19T20:05:32.789Z,10.40
2023-03-19T20:08:01.836Z,10.31
2023-03-19T20:10:29.709Z,10.26
2023-03-19T20:13:00.839Z,10.23
2023-03-19T20:15:29.443Z,10.11
2023-03-19T20:17:56.000Z,10.05
2023-03-19T20:20:24.403Z,10.04
2023-03-19T20:22:50.884Z,10.10
2023-03-19T20:25:18.628Z,10.02
2023-03-19T20:27:45.432Z,9.93
2023-03-19T20:30:32.314Z,10.11
2023-03-19T20:32:59.588Z,10.21
2023-03-19T20:35:27.683Z,10.23
2023-03-19T20:37:54.970Z,10.36
2023-03-19T20:40:22.193Z,10.34
2023-03-19T20:42:49.930Z,10.49
2023-03-19T20:45:18.679Z,10.57
2023-03-19T20:47:45.238Z,10.48
2023-03-19T20:50:20.061Z,10.51
2023-03-19T20:52:46.723Z,10.55
2023-03-19T20:55:16.670Z,10.42
2023-03-19T20:57:43.285Z,10.33
2023-03-19T21:00:16.939Z,10.26
2023-03-19T21:02:43.454Z,10.11
2023-03-19T21:05:14.020Z,10.01
2023-03-19T21:07:40.776Z,9.99
2023-03-19T21:10:31.398Z,10.07
2023-03-19T21:12:58.853Z,10.07
2023-03-19T21:15:25.674Z,10.01
2023-03-19T21:17:53.245Z,9.99
2023-03-19T21:20:30.164Z,9.92
2023-03-19T21:23:05.504Z,9.86
2023-03-19T21:25:32.016Z,9.85
2023-03-19T21:28:00.970Z,9.81
2023-03-19T21:30:27.439Z,9.75
2023-03-19T21:32:54.029Z,9.69
2023-03-19T21:35:22.092Z,9.67
2023-03-19T21:37:48.628Z,9.73
2023-03-19T21:40:22.843Z,9.81
2023-03-19T21:42:51.150Z,9.77
2023-03-19T21:45:27.643Z,9.73
2023-03-19T21:48:28.717Z,9.76
2023-03-19T21:50:55.340Z,9.75
2023-03-19T21:53:22.420Z,9.70
2023-03-19T21:55:50.106Z,9.70
2023-03-19T21:58:17.892Z,9.72
2023-03-19T22:00:44.655Z,9.54
2023-03-19T22:03:18.543Z,9.54
2023-03-19T22:05:45.613Z,9.56
2023-03-19T22:08:14.847Z,9.53
2023-03-19T22:10:42.557Z,9.50
2023-03-19T22:13:26.005Z,9.52
2023-03-19T22:15:53.333Z,9.56
2023-03-19T22:18:20.301Z,9.63
2023-03-19T22:20:47.031Z,9.58
2023-03-19T22:23:13.779Z,9.55
2023-03-19T22:25:42.436Z,9.63
2023-03-19T22:28:31.267Z,9.69
2023-03-19T22:30:57.745Z,9.65
2023-03-19T22:33:25.619Z,9.62
2023-03-19T22:35:52.150Z,9.60
2023-03-19T22:38:19.455Z,9.60
2023-03-19T22:40:47.549Z,9.59
2023-03-19T22:43:26.084Z,9.53
2023-03-19T22:46:09.319Z,9.54
2023-03-19T22:48:35.884Z,9.61
2023-03-19T22:51:02.455Z,9.63
2023-03-19T22:53:30.612Z,9.77
2023-03-19T22:55:57.692Z,9.77
2023-03-19T22:58:24.380Z,9.80
2023-03-19T23:00:51.037Z,9.82
2023-03-19T23:03:24.755Z,9.84
2023-03-19T23:05:53.239Z,9.94
2023-03-19T23:08:19.796Z,9.91
2023-03-19T23:10:47.299Z,9.91
2023-03-19T23:13:14.727Z,9.98
2023-03-19T23:15:41.556Z,9.98
2023-03-19T23:18:19.140Z,9.85
2023-03-19T23:20:46.483Z,9.83
2023-03-19T23:23:14.268Z,9.84
2023-03-19T23:25:41.776Z,9.84
2023-03-19T23:28:19.451Z,9.79
2023-03-19T23:30:46.413Z,9.79
2023-03-19T23:33:12.976Z,9.82
2023-03-19T23:35:40.261Z,9.75
2023-03-19T23:38:07.016Z,9.77
2023-03-19T23:40:33.495Z,9.73
2023-03-19T23:43:01.257Z,9.67
2023-03-19T23:45:37.740Z,9.62
2023-03-19T23:48:06.590Z,9.56
2023-03-19T23:50:33.559Z,9.56
2023-03-19T23:53:00.135Z,9.50
2023-03-19T23:55:26.650Z,9.48
2023-03-19T23:57:53.303Z,9.47
